GRZ weather

Graz Airport
Graz, Styria, Austria

Public forecast

Using degrees Celsius for public forecast. Weather courtesy of forecast.io.

METAR (pilot weather report)

Retrieved 2019/03/26 02:50 UTC (52 minutes ago):

LOWG 260250Z AUTO 33004KT 280V050 9999 FEW140 SCT160 04/M02 Q1021

TAF (pilot weather forecast)

Forecast is more than 12 hours old.

Retrieved 2019/03/25 00:18 UTC (1 day ago):

TAF LOWG 252315Z 2600/2624 35005KT 9999 FEW060 SCT100 TX11/2614Z TN02/2624Z TEMPO 2610/2618 01010G20KT